createdAt,value
2019-06-08T00:01:34.431Z,1.80
2019-06-08T00:04:06.238Z,1.87
2019-06-08T00:06:37.937Z,2.67
2019-06-08T00:09:09.665Z,2.75
2019-06-08T00:11:41.334Z,2.25
2019-06-08T00:14:13.174Z,2.40
2019-06-08T00:16:44.950Z,2.30
2019-06-08T00:19:17.395Z,2.40
2019-06-08T00:21:49.187Z,2.60
2019-06-08T00:24:21.900Z,3.00
2019-06-08T00:26:54.673Z,2.42
2019-06-08T00:29:26.498Z,2.87
2019-06-08T00:31:58.313Z,2.80
2019-06-08T00:34:30.130Z,3.17
2019-06-08T00:37:01.815Z,3.65
2019-06-08T00:39:33.478Z,3.60
2019-06-08T00:42:05.193Z,3.45
2019-06-08T00:44:37.012Z,3.22
2019-06-08T00:47:08.860Z,3.47
2019-06-08T00:49:40.622Z,3.70
2019-06-08T00:52:12.378Z,3.85
2019-06-08T00:54:44.190Z,3.95
2019-06-08T00:57:15.973Z,4.30
2019-06-08T00:59:47.821Z,4.40
2019-06-08T01:02:20.395Z,4.67
2019-06-08T01:04:52.597Z,4.90
2019-06-08T01:07:24.494Z,7.87
2019-06-08T01:09:56.448Z,6.25
2019-06-08T01:12:29.022Z,7.25
2019-06-08T01:15:01.169Z,4.95
2019-06-08T01:17:33.021Z,4.78
2019-06-08T01:20:06.832Z,3.90
2019-06-08T01:22:38.508Z,3.02
2019-06-08T01:25:10.190Z,3.12
2019-06-08T01:27:41.998Z,3.27
2019-06-08T01:30:17.932Z,3.53
2019-06-08T01:32:49.712Z,3.60
2019-06-08T01:35:22.883Z,4.60
2019-06-08T01:37:54.888Z,5.20
2019-06-08T01:40:27.494Z,6.62
2019-06-08T01:42:59.594Z,7.10
2019-06-08T01:45:32.800Z,6.92
2019-06-08T01:48:19.544Z,6.65
2019-06-08T01:50:39.776Z,7.67
2019-06-08T01:53:11.583Z,7.40
2019-06-08T01:55:43.465Z,8.05
2019-06-08T01:58:15.484Z,7.45
2019-06-08T02:00:47.202Z,8.10
2019-06-08T02:03:19.359Z,7.90
2019-06-08T02:05:51.351Z,7.58
2019-06-08T02:08:24.384Z,8.05
2019-06-08T02:10:56.527Z,8.55
2019-06-08T02:13:28.894Z,7.87
2019-06-08T02:16:00.871Z,7.67
2019-06-08T02:18:45.741Z,6.17
2019-06-08T02:21:06.598Z,6.30
2019-06-08T02:23:39.614Z,6.78
2019-06-08T02:26:11.632Z,7.33
2019-06-08T02:28:43.338Z,7.15
2019-06-08T02:31:15.312Z,7.70
2019-06-08T02:33:47.670Z,7.53
2019-06-08T02:36:19.444Z,6.65
2019-06-08T02:38:51.306Z,7.05
2019-06-08T02:41:23.209Z,7.37
2019-06-08T02:43:55.309Z,7.17
2019-06-08T02:46:29.044Z,5.87
2019-06-08T02:49:04.583Z,5.53
2019-06-08T02:51:36.412Z,4.42
2019-06-08T02:54:08.274Z,4.45
2019-06-08T02:56:41.083Z,3.37
2019-06-08T02:59:14.817Z,4.20
2019-06-08T03:01:46.968Z,4.12
2019-06-08T03:04:18.756Z,3.85
2019-06-08T03:06:50.973Z,3.72
2019-06-08T03:09:22.826Z,3.47
2019-06-08T03:11:55.622Z,3.75
2019-06-08T03:14:31.039Z,3.87
2019-06-08T03:17:03.116Z,4.12
2019-06-08T03:19:35.660Z,4.15
2019-06-08T03:22:10.913Z,3.67
2019-06-08T03:24:44.066Z,4.17
2019-06-08T03:27:15.656Z,3.35
2019-06-08T03:29:47.426Z,3.52
2019-06-08T03:32:20.317Z,3.72
2019-06-08T03:34:56.442Z,2.90
2019-06-08T03:37:25.507Z,3.20
2019-06-08T03:39:57.273Z,3.22
2019-06-08T03:42:28.975Z,3.37
2019-06-08T03:45:00.769Z,3.40
2019-06-08T03:47:32.570Z,3.22
2019-06-08T03:50:05.692Z,3.47
2019-06-08T03:52:38.194Z,3.47
2019-06-08T03:55:10.865Z,3.62
2019-06-08T03:57:44.089Z,2.95
2019-06-08T04:00:16.023Z,3.30
2019-06-08T04:02:47.823Z,3.62
2019-06-08T04:05:19.649Z,3.52
2019-06-08T04:07:51.399Z,3.52
2019-06-08T04:10:23.245Z,3.50
2019-06-08T04:12:55.017Z,3.72
2019-06-08T04:15:26.875Z,3.17
2019-06-08T04:17:58.735Z,3.75
2019-06-08T04:20:30.840Z,2.85
2019-06-08T04:23:02.536Z,3.72
2019-06-08T04:25:34.430Z,2.95
2019-06-08T04:28:06.144Z,3.27
2019-06-08T04:30:38.732Z,3.20
2019-06-08T04:33:10.744Z,2.95
2019-06-08T04:35:44.707Z,3.30
2019-06-08T04:38:17.153Z,3.12
2019-06-08T04:40:50.091Z,3.42
2019-06-08T04:43:23.038Z,4.17
2019-06-08T04:45:54.856Z,3.42
2019-06-08T04:48:26.601Z,3.37
2019-06-08T04:50:58.261Z,4.28
2019-06-08T04:53:30.328Z,3.55
2019-06-08T04:56:03.745Z,4.42
2019-06-08T04:58:35.431Z,3.55
2019-06-08T05:01:07.091Z,3.55
2019-06-08T05:03:39.377Z,3.33
2019-06-08T05:06:12.489Z,4.10
2019-06-08T05:08:45.245Z,3.42
2019-06-08T05:11:17.375Z,3.50
2019-06-08T05:13:49.863Z,3.95
2019-06-08T05:16:21.948Z,3.95
2019-06-08T05:18:53.677Z,3.77
2019-06-08T05:21:25.513Z,3.87
2019-06-08T05:23:58.952Z,3.65
2019-06-08T05:26:30.870Z,3.55
2019-06-08T05:29:02.709Z,4.67
2019-06-08T05:31:34.519Z,4.72
2019-06-08T05:34:06.195Z,4.00
2019-06-08T05:36:39.291Z,4.03
2019-06-08T05:39:11.221Z,3.70
2019-06-08T05:41:43.474Z,4.97
2019-06-08T05:44:15.322Z,3.85
2019-06-08T05:46:47.942Z,4.20
2019-06-08T05:49:19.826Z,3.67
2019-06-08T05:51:51.652Z,3.98
2019-06-08T05:54:23.324Z,3.80
2019-06-08T05:56:55.261Z,3.75
2019-06-08T05:59:26.994Z,3.30
2019-06-08T06:01:58.873Z,3.17
2019-06-08T06:04:30.688Z,3.67
2019-06-08T06:07:03.517Z,3.52
2019-06-08T06:09:35.291Z,3.30
2019-06-08T06:12:07.756Z,3.10
2019-06-08T06:14:40.672Z,3.05
2019-06-08T06:17:13.615Z,2.90
2019-06-08T06:19:45.282Z,2.10
2019-06-08T06:22:17.029Z,2.33
2019-06-08T06:24:49.723Z,2.58
2019-06-08T06:27:21.679Z,2.83
2019-06-08T06:29:53.459Z,1.92
2019-06-08T06:32:25.250Z,3.10
2019-06-08T06:34:57.011Z,3.08
2019-06-08T06:37:28.728Z,2.20
2019-06-08T06:40:00.528Z,2.72
2019-06-08T06:42:32.258Z,2.30
2019-06-08T06:45:06.907Z,2.33
2019-06-08T06:47:38.729Z,3.05
2019-06-08T06:50:10.566Z,2.40
2019-06-08T06:52:42.740Z,2.27
2019-06-08T06:55:15.567Z,2.70
2019-06-08T06:57:47.418Z,2.33
2019-06-08T07:00:30.604Z,2.37
2019-06-08T07:03:02.485Z,2.20
2019-06-08T07:05:34.231Z,2.65
2019-06-08T07:08:06.037Z,2.30
2019-06-08T07:10:38.623Z,2.15
2019-06-08T07:13:10.368Z,2.00
2019-06-08T07:15:42.146Z,2.52
2019-06-08T07:18:14.035Z,2.30
2019-06-08T07:20:46.131Z,2.40
2019-06-08T07:23:18.051Z,2.92
2019-06-08T07:25:50.452Z,2.75
2019-06-08T07:28:22.323Z,2.70
2019-06-08T07:30:54.893Z,2.30
2019-06-08T07:33:26.870Z,2.80
2019-06-08T07:35:59.850Z,2.65
2019-06-08T07:38:31.823Z,2.65
2019-06-08T07:41:03.693Z,2.35
2019-06-08T07:43:35.712Z,2.55
2019-06-08T07:46:07.529Z,2.58
2019-06-08T07:48:39.794Z,2.12
2019-06-08T07:51:11.613Z,2.50
2019-06-08T07:53:43.372Z,2.05
2019-06-08T07:56:15.466Z,2.08
2019-06-08T07:58:49.511Z,1.90
2019-06-08T08:01:35.226Z,2.85
2019-06-08T08:03:55.986Z,2.00
2019-06-08T08:06:30.523Z,2.22
2019-06-08T08:09:01.802Z,2.10
2019-06-08T08:11:35.141Z,2.22
2019-06-08T08:14:07.033Z,2.35
2019-06-08T08:16:39.183Z,2.70
2019-06-08T08:19:10.961Z,2.20
2019-06-08T08:21:42.724Z,3.12
2019-06-08T08:24:17.260Z,1.70
2019-06-08T08:26:59.760Z,1.85
2019-06-08T08:29:31.452Z,2.33
2019-06-08T08:32:03.269Z,2.15
2019-06-08T08:34:35.171Z,1.70
2019-06-08T08:37:09.490Z,1.60
2019-06-08T08:39:40.603Z,1.85
2019-06-08T08:42:12.442Z,1.75
2019-06-08T08:44:44.308Z,1.60
2019-06-08T08:47:18.524Z,1.50
2019-06-08T08:49:50.646Z,1.98
2019-06-08T08:52:34.547Z,2.15
2019-06-08T08:55:00.370Z,1.42
2019-06-08T08:57:33.944Z,1.55
2019-06-08T09:00:08.549Z,1.52
2019-06-08T09:02:40.018Z,1.50
2019-06-08T09:05:13.220Z,2.10
2019-06-08T09:07:44.960Z,1.90
2019-06-08T09:10:18.279Z,1.67
2019-06-08T09:12:52.162Z,1.98
2019-06-08T09:15:31.433Z,1.60
2019-06-08T09:18:07.957Z,1.60
2019-06-08T09:20:48.494Z,2.20
2019-06-08T09:23:28.139Z,1.70
2019-06-08T09:26:28.916Z,1.67
2019-06-08T09:29:21.048Z,1.50
2019-06-08T09:32:10.956Z,1.80
2019-06-08T09:34:56.302Z,1.80
2019-06-08T09:38:01.161Z,1.80
2019-06-08T09:40:50.644Z,1.70
2019-06-08T09:43:23.840Z,1.82
2019-06-08T09:48:50.821Z,2.10
2019-06-08T09:51:23.681Z,1.67
2019-06-08T09:56:53.586Z,1.98
2019-06-08T09:59:33.817Z,1.77
2019-06-08T10:02:12.395Z,1.80
2019-06-08T10:04:42.167Z,1.70
2019-06-08T10:07:14.548Z,1.70
2019-06-08T10:09:47.405Z,1.77
2019-06-08T10:12:20.395Z,2.30
2019-06-08T10:14:52.094Z,2.37
2019-06-08T10:17:23.872Z,1.72
2019-06-08T10:19:58.844Z,6.10
2019-06-08T10:22:29.134Z,2.47
2019-06-08T10:25:05.350Z,2.12
2019-06-08T10:27:34.367Z,2.47
2019-06-08T10:30:09.928Z,1.80
2019-06-08T10:32:40.797Z,2.17
2019-06-08T10:35:12.512Z,1.82
2019-06-08T10:37:44.215Z,2.25
2019-06-08T10:40:18.558Z,2.40
2019-06-08T10:42:49.451Z,2.30
2019-06-08T10:45:22.502Z,2.42
2019-06-08T10:47:54.217Z,2.05
2019-06-08T10:50:28.681Z,2.40
2019-06-08T10:53:02.827Z,4.53
2019-06-08T10:55:33.145Z,5.12
2019-06-08T10:58:06.576Z,2.35
2019-06-08T11:00:38.898Z,3.10
2019-06-08T11:03:11.901Z,2.37
2019-06-08T11:05:43.754Z,2.20
2019-06-08T11:08:15.601Z,1.57
2019-06-08T11:10:47.572Z,3.12
2019-06-08T11:13:19.258Z,2.05
2019-06-08T11:15:51.112Z,1.98
2019-06-08T11:18:22.865Z,1.85
2019-06-08T11:20:54.641Z,2.12
2019-06-08T11:23:28.615Z,2.05
2019-06-08T11:26:04.592Z,2.02
2019-06-08T11:28:33.557Z,1.72
2019-06-08T11:31:08.433Z,2.10
2019-06-08T11:33:39.759Z,2.07
2019-06-08T11:36:14.648Z,1.75
2019-06-08T11:38:44.987Z,2.15
2019-06-08T11:41:18.960Z,1.85
2019-06-08T11:43:50.208Z,2.08
2019-06-08T11:46:22.255Z,1.65
2019-06-08T11:48:54.040Z,1.80
2019-06-08T11:51:29.592Z,7.03
2019-06-08T11:53:59.727Z,6.65
2019-06-08T11:56:32.771Z,2.00
2019-06-08T11:59:05.246Z,1.80
2019-06-08T12:01:38.010Z,1.80
2019-06-08T12:04:09.967Z,1.85
2019-06-08T12:06:41.801Z,1.85
2019-06-08T12:09:14.090Z,1.87
2019-06-08T12:11:48.010Z,1.75
2019-06-08T12:14:19.418Z,2.47
2019-06-08T12:16:51.234Z,2.40
2019-06-08T12:19:23.118Z,1.85
2019-06-08T12:21:57.837Z,2.00
2019-06-08T12:24:41.444Z,2.40
2019-06-08T12:27:10.512Z,2.15
2019-06-08T12:29:35.963Z,1.60
2019-06-08T12:32:09.383Z,1.90
2019-06-08T12:34:41.329Z,1.62
2019-06-08T12:37:17.206Z,1.87
2019-06-08T12:39:48.551Z,1.95
2019-06-08T12:42:24.608Z,1.20
2019-06-08T12:44:53.342Z,2.10
2019-06-08T12:47:27.402Z,2.40
2019-06-08T12:49:58.650Z,1.60
2019-06-08T12:52:30.456Z,1.60
2019-06-08T12:55:06.871Z,3.25
2019-06-08T12:57:35.960Z,2.25
2019-06-08T13:00:09.867Z,2.40
2019-06-08T13:02:41.533Z,1.50
2019-06-08T13:05:16.437Z,1.95
2019-06-08T13:07:47.501Z,1.62
2019-06-08T13:10:23.516Z,2.55
2019-06-08T13:12:53.029Z,2.90
2019-06-08T13:15:24.837Z,2.95
2019-06-08T13:17:58.645Z,1.82
2019-06-08T13:20:30.148Z,2.20
2019-06-08T13:23:02.021Z,2.60
2019-06-08T13:25:40.359Z,2.02
2019-06-08T13:28:12.252Z,2.27
2019-06-08T13:30:40.858Z,1.70
2019-06-08T13:33:14.029Z,1.77
2019-06-08T13:35:47.988Z,2.00
2019-06-08T13:38:22.988Z,1.82
2019-06-08T13:40:54.266Z,1.50
2019-06-08T13:43:26.127Z,1.50
2019-06-08T13:45:58.972Z,1.77
2019-06-08T13:48:30.654Z,1.82
2019-06-08T13:51:02.345Z,1.90
2019-06-08T13:53:34.062Z,1.60
2019-06-08T13:56:07.813Z,2.20
2019-06-08T13:58:39.296Z,1.32
2019-06-08T14:01:11.113Z,2.02
2019-06-08T14:03:42.969Z,1.95
2019-06-08T14:06:15.928Z,2.00
2019-06-08T14:08:49.852Z,2.00
2019-06-08T14:11:22.628Z,1.72
2019-06-08T14:13:55.089Z,1.60
2019-06-08T14:16:29.381Z,1.95
2019-06-08T14:19:00.395Z,2.52
2019-06-08T14:21:40.966Z,2.20
2019-06-08T14:24:07.777Z,2.00
2019-06-08T14:26:39.035Z,2.33
2019-06-08T14:29:11.797Z,2.75
2019-06-08T14:31:43.629Z,2.25
2019-06-08T14:34:18.644Z,2.33
2019-06-08T14:36:50.288Z,2.80
2019-06-08T14:39:23.155Z,2.25
2019-06-08T14:41:57.692Z,2.40
2019-06-08T14:44:32.130Z,2.83
2019-06-08T14:47:08.069Z,2.63
2019-06-08T14:49:39.563Z,2.55
2019-06-08T14:52:11.197Z,2.30
2019-06-08T14:54:42.979Z,2.55
2019-06-08T14:57:14.735Z,2.15
2019-06-08T14:59:50.087Z,2.35
2019-06-08T15:02:21.107Z,2.75
2019-06-08T15:04:52.966Z,2.52
2019-06-08T15:07:26.144Z,2.22
2019-06-08T15:09:58.213Z,2.30
2019-06-08T15:12:31.413Z,2.27
2019-06-08T15:15:03.348Z,2.37
2019-06-08T15:17:35.172Z,2.25
2019-06-08T15:20:08.868Z,2.17
2019-06-08T15:22:40.686Z,2.55
2019-06-08T15:25:12.482Z,2.27
2019-06-08T15:27:44.235Z,2.30
2019-06-08T15:30:17.883Z,2.10
2019-06-08T15:32:49.452Z,2.33
2019-06-08T15:35:21.182Z,2.55
2019-06-08T15:37:52.874Z,2.15
2019-06-08T15:40:25.845Z,2.25
2019-06-08T15:42:58.571Z,2.05
2019-06-08T15:45:32.581Z,1.70
2019-06-08T15:48:03.859Z,2.20
2019-06-08T15:50:37.702Z,2.08
2019-06-08T15:53:08.901Z,2.30
2019-06-08T15:55:40.593Z,2.10
2019-06-08T15:58:12.429Z,2.35
2019-06-08T16:00:44.067Z,2.15
2019-06-08T16:03:15.817Z,2.33
2019-06-08T16:05:47.431Z,1.95
2019-06-08T16:08:19.190Z,2.35
2019-06-08T16:10:51.028Z,2.22
2019-06-08T16:13:22.724Z,2.80
2019-06-08T16:15:54.442Z,2.60
2019-06-08T16:18:27.377Z,2.67
2019-06-08T16:23:31.850Z,2.30
2019-06-08T16:26:03.790Z,2.40
2019-06-08T16:28:36.299Z,3.00
2019-06-08T16:31:09.213Z,3.02
2019-06-08T16:33:44.020Z,2.40
2019-06-08T16:36:14.406Z,2.98
2019-06-08T16:38:46.086Z,2.70
2019-06-08T16:41:17.825Z,2.83
2019-06-08T16:43:49.508Z,2.72
2019-06-08T16:46:21.305Z,3.12
2019-06-08T16:48:53.249Z,3.27
2019-06-08T16:51:25.065Z,3.40
2019-06-08T16:53:56.821Z,3.27
2019-06-08T16:56:29.857Z,3.02
2019-06-08T16:59:01.876Z,2.27
2019-06-08T17:01:34.752Z,2.50
2019-06-08T17:04:07.697Z,2.42
2019-06-08T17:06:39.524Z,2.50
2019-06-08T17:09:11.312Z,2.40
2019-06-08T17:11:43.225Z,2.20
2019-06-08T17:14:15.003Z,2.50
2019-06-08T17:16:46.691Z,2.20
2019-06-08T17:19:18.424Z,2.33
2019-06-08T17:21:50.161Z,2.20
2019-06-08T17:24:22.039Z,2.15
2019-06-08T17:26:53.887Z,1.80
2019-06-08T17:29:25.679Z,1.90
2019-06-08T17:31:57.374Z,2.83
2019-06-08T17:34:29.157Z,1.57
2019-06-08T17:37:00.902Z,2.27
2019-06-08T17:39:33.740Z,1.90
2019-06-08T17:42:05.697Z,1.65
2019-06-08T17:44:38.326Z,2.02
2019-06-08T17:47:10.156Z,2.22
2019-06-08T17:49:43.311Z,2.10
2019-06-08T17:52:15.196Z,2.15
2019-06-08T17:54:49.546Z,2.00
2019-06-08T17:57:21.328Z,1.87
2019-06-08T17:59:53.079Z,2.10
2019-06-08T18:02:28.142Z,1.90
2019-06-08T18:04:58.250Z,2.02
2019-06-08T18:07:30.044Z,2.40
2019-06-08T18:10:02.780Z,2.20
2019-06-08T18:12:35.974Z,2.17
2019-06-08T18:15:08.431Z,2.52
2019-06-08T18:17:42.161Z,2.35
2019-06-08T18:20:17.540Z,2.30
2019-06-08T18:22:49.389Z,2.50
2019-06-08T18:25:21.886Z,1.98
2019-06-08T18:28:06.603Z,2.52
2019-06-08T18:30:27.642Z,1.92
2019-06-08T18:32:59.937Z,1.82
2019-06-08T18:35:31.679Z,1.87
2019-06-08T18:38:03.543Z,1.92
2019-06-08T18:40:37.593Z,2.77
2019-06-08T18:43:09.279Z,2.12
2019-06-08T18:45:42.778Z,3.30
2019-06-08T18:48:14.473Z,3.17
2019-06-08T18:50:48.502Z,2.20
2019-06-08T18:53:19.723Z,2.02
2019-06-08T18:55:51.577Z,2.72
2019-06-08T18:58:25.063Z,2.50
2019-06-08T19:00:57.564Z,1.60
2019-06-08T19:03:29.534Z,1.90
2019-06-08T19:06:01.297Z,2.25
2019-06-08T19:08:33.119Z,3.58
2019-06-08T19:11:04.823Z,2.60
2019-06-08T19:13:37.899Z,2.17
2019-06-08T19:16:11.472Z,1.80
2019-06-08T19:18:47.746Z,2.47
2019-06-08T19:21:17.818Z,2.08
2019-06-08T19:23:50.480Z,2.55
2019-06-08T19:26:23.358Z,2.08
2019-06-08T19:28:55.114Z,2.20
2019-06-08T19:31:27.689Z,3.90
2019-06-08T19:33:59.628Z,4.17
2019-06-08T19:36:31.375Z,2.95
2019-06-08T19:39:03.630Z,2.52
2019-06-08T19:41:38.110Z,3.12
2019-06-08T19:44:09.339Z,3.30
2019-06-08T19:46:42.378Z,3.30
2019-06-08T19:49:14.168Z,7.72
2019-06-08T19:51:48.489Z,7.80
2019-06-08T19:54:19.595Z,3.10
2019-06-08T19:56:53.996Z,3.45
2019-06-08T19:59:27.215Z,3.20
2019-06-08T20:01:59.889Z,2.90
2019-06-08T20:04:32.043Z,2.92
2019-06-08T20:07:03.787Z,3.02
2019-06-08T20:09:37.638Z,3.50
2019-06-08T20:12:09.724Z,2.77
2019-06-08T20:14:41.547Z,2.90
2019-06-08T20:17:13.229Z,2.72
2019-06-08T20:19:44.872Z,2.70
2019-06-08T20:22:18.381Z,2.20
2019-06-08T20:24:55.358Z,2.25
2019-06-08T20:27:24.247Z,2.62
2019-06-08T20:29:58.028Z,3.25
2019-06-08T20:32:29.352Z,2.72
2019-06-08T20:35:01.155Z,2.70
2019-06-08T20:37:32.901Z,2.60
2019-06-08T20:40:13.254Z,2.80
2019-06-08T20:42:39.199Z,3.37
2019-06-08T20:45:10.882Z,2.98
2019-06-08T20:47:42.551Z,3.15
2019-06-08T20:50:14.310Z,2.83
2019-06-08T20:52:47.252Z,2.83
2019-06-08T20:55:19.516Z,2.90
2019-06-08T20:57:52.360Z,2.90
2019-06-08T21:00:24.181Z,2.80
2019-06-08T21:03:02.530Z,3.00
2019-06-08T21:05:29.386Z,2.75
2019-06-08T21:08:01.211Z,4.35
2019-06-08T21:10:33.021Z,3.55
2019-06-08T21:13:07.146Z,3.47
2019-06-08T21:15:38.467Z,2.80
2019-06-08T21:18:10.223Z,2.40
2019-06-08T21:20:42.046Z,2.50
2019-06-08T21:23:14.034Z,4.05
2019-06-08T21:25:47.105Z,4.33
2019-06-08T21:28:19.075Z,2.47
2019-06-08T21:30:55.263Z,2.22
2019-06-08T21:33:24.299Z,2.15
2019-06-08T21:36:03.482Z,2.90
2019-06-08T21:38:29.607Z,3.15
2019-06-08T21:41:02.912Z,4.35
2019-06-08T21:43:37.267Z,2.37
2019-06-08T21:46:08.410Z,2.30
2019-06-08T21:48:40.243Z,2.35
2019-06-08T21:51:11.982Z,2.58
2019-06-08T21:53:43.797Z,2.47
2019-06-08T21:56:18.062Z,2.17
2019-06-08T21:58:50.297Z,2.62
2019-06-08T22:01:22.929Z,2.25
2019-06-08T22:03:55.930Z,2.37
2019-06-08T22:06:28.374Z,2.12
2019-06-08T22:09:01.258Z,2.65
2019-06-08T22:11:37.484Z,2.75
2019-06-08T22:14:08.684Z,2.90
2019-06-08T22:16:40.570Z,2.85
2019-06-08T22:19:12.398Z,2.75
2019-06-08T22:21:44.171Z,2.60
2019-06-08T22:24:17.158Z,2.30
2019-06-08T22:26:49.067Z,2.87
2019-06-08T22:29:20.760Z,2.33
2019-06-08T22:31:53.715Z,2.22
2019-06-08T22:34:28.026Z,2.02
2019-06-08T22:37:00.451Z,2.27
2019-06-08T22:39:32.478Z,1.87
2019-06-08T22:42:04.246Z,2.30
2019-06-08T22:44:37.548Z,4.87
2019-06-08T22:47:09.611Z,3.80
2019-06-08T22:49:41.453Z,3.85
2019-06-08T22:52:14.409Z,3.45
2019-06-08T22:54:47.672Z,3.70
2019-06-08T22:57:19.453Z,3.22
2019-06-08T22:59:51.124Z,3.87
2019-06-08T23:02:22.917Z,3.58
2019-06-08T23:04:55.192Z,4.08
2019-06-08T23:07:32.443Z,3.98
2019-06-08T23:10:03.931Z,4.08
2019-06-08T23:12:34.890Z,4.30
2019-06-08T23:15:08.039Z,5.72
2019-06-08T23:17:39.886Z,5.08
2019-06-08T23:20:11.708Z,5.20
2019-06-08T23:22:43.396Z,5.08
2019-06-08T23:25:15.160Z,5.37
2019-06-08T23:27:48.411Z,6.00
2019-06-08T23:30:20.468Z,6.97
2019-06-08T23:32:52.331Z,7.10
2019-06-08T23:35:24.274Z,7.50
2019-06-08T23:37:56.847Z,7.92
2019-06-08T23:40:28.768Z,7.90
2019-06-08T23:43:01.610Z,8.40
2019-06-08T23:45:34.320Z,8.00
2019-06-08T23:48:06.704Z,7.85
2019-06-08T23:50:38.796Z,7.03
2019-06-08T23:53:10.993Z,7.25
2019-06-08T23:55:42.816Z,6.92
2019-06-08T23:58:17.250Z,6.47
